sensor_id;sensor_type;location;lat;lon;timestamp;temperature;humidity
41644;DHT22;44236;48.098;11.582;2023-09-07T00:01:31;23.00;53.70
41644;DHT22;44236;48.098;11.582;2023-09-07T00:03:56;23.00;53.70
41644;DHT22;44236;48.098;11.582;2023-09-07T00:06:22;23.00;53.70
41644;DHT22;44236;48.098;11.582;2023-09-07T00:08:48;23.00;53.70
41644;DHT22;44236;48.098;11.582;2023-09-07T00:11:13;23.00;53.70
41644;DHT22;44236;48.098;11.582;2023-09-07T00:13:39;23.00;53.80
41644;DHT22;44236;48.098;11.582;2023-09-07T00:16:05;23.00;53.70
41644;DHT22;44236;48.098;11.582;2023-09-07T00:18:32;23.00;53.80
41644;DHT22;44236;48.098;11.582;2023-09-07T00:20:58;22.90;53.80
41644;DHT22;44236;48.098;11.582;2023-09-07T00:23:24;22.90;53.80
41644;DHT22;44236;48.098;11.582;2023-09-07T00:25:50;23.00;53.80
41644;DHT22;44236;48.098;11.582;2023-09-07T00:28:16;23.00;53.80
41644;DHT22;44236;48.098;11.582;2023-09-07T00:30:41;22.90;53.80
41644;DHT22;44236;48.098;11.582;2023-09-07T00:33:07;22.90;53.80
41644;DHT22;44236;48.098;11.582;2023-09-07T00:35:33;22.90;53.80
41644;DHT22;44236;48.098;11.582;2023-09-07T00:37:59;22.90;53.80
41644;DHT22;44236;48.098;11.582;2023-09-07T00:40:25;22.90;53.80
41644;DHT22;44236;48.098;11.582;2023-09-07T00:42:52;22.90;53.80
41644;DHT22;44236;48.098;11.582;2023-09-07T00:45:17;22.90;53.80
41644;DHT22;44236;48.098;11.582;2023-09-07T00:47:43;22.90;53.80
41644;DHT22;44236;48.098;11.582;2023-09-07T00:50:09;22.80;53.80
41644;DHT22;44236;48.098;11.582;2023-09-07T00:52:36;22.90;53.80
41644;DHT22;44236;48.098;11.582;2023-09-07T00:55:05;22.90;53.80
41644;DHT22;44236;48.098;11.582;2023-09-07T00:57:32;22.80;53.80
41644;DHT22;44236;48.098;11.582;2023-09-07T00:59:57;22.80;53.70
41644;DHT22;44236;48.098;11.582;2023-09-07T01:02:23;22.90;53.80
41644;DHT22;44236;48.098;11.582;2023-09-07T01:04:51;22.80;53.80
41644;DHT22;44236;48.098;11.582;2023-09-07T01:07:20;22.80;53.80
41644;DHT22;44236;48.098;11.582;2023-09-07T01:09:53;22.80;53.80
41644;DHT22;44236;48.098;11.582;2023-09-07T01:12:19;22.80;53.80
41644;DHT22;44236;48.098;11.582;2023-09-07T01:14:45;22.80;53.80
41644;DHT22;44236;48.098;11.582;2023-09-07T01:17:11;22.80;53.80
41644;DHT22;44236;48.098;11.582;2023-09-07T01:19:39;22.80;53.80
41644;DHT22;44236;48.098;11.582;2023-09-07T01:22:09;22.80;53.80
41644;DHT22;44236;48.098;11.582;2023-09-07T01:24:36;22.70;53.80
41644;DHT22;44236;48.098;11.582;2023-09-07T01:27:03;22.80;53.80
41644;DHT22;44236;48.098;11.582;2023-09-07T01:29:30;22.80;53.70
41644;DHT22;44236;48.098;11.582;2023-09-07T01:31:56;22.80;53.80
41644;DHT22;44236;48.098;11.582;2023-09-07T01:34:23;22.70;53.70
41644;DHT22;44236;48.098;11.582;2023-09-07T01:36:49;22.70;53.70
41644;DHT22;44236;48.098;11.582;2023-09-07T01:39:15;22.70;53.70
41644;DHT22;44236;48.098;11.582;2023-09-07T01:41:42;22.70;53.70
41644;DHT22;44236;48.098;11.582;2023-09-07T01:44:08;22.70;53.70
41644;DHT22;44236;48.098;11.582;2023-09-07T01:46:33;22.70;53.70
41644;DHT22;44236;48.098;11.582;2023-09-07T01:49:01;22.60;53.70
41644;DHT22;44236;48.098;11.582;2023-09-07T01:51:26;22.70;53.70
41644;DHT22;44236;48.098;11.582;2023-09-07T01:53:53;22.60;53.60
41644;DHT22;44236;48.098;11.582;2023-09-07T01:56:19;22.70;53.70
41644;DHT22;44236;48.098;11.582;2023-09-07T01:58:44;22.70;53.70
41644;DHT22;44236;48.098;11.582;2023-09-07T02:01:27;22.70;53.70
41644;DHT22;44236;48.098;11.582;2023-09-07T02:03:55;22.60;53.60
41644;DHT22;44236;48.098;11.582;2023-09-07T02:06:20;22.60;53.70
41644;DHT22;44236;48.098;11.582;2023-09-07T02:08:46;22.70;53.70
41644;DHT22;44236;48.098;11.582;2023-09-07T02:11:12;22.60;53.60
41644;DHT22;44236;48.098;11.582;2023-09-07T02:13:38;22.60;53.60
41644;DHT22;44236;48.098;11.582;2023-09-07T02:16:06;22.60;53.60
41644;DHT22;44236;48.098;11.582;2023-09-07T02:18:32;22.60;53.60
41644;DHT22;44236;48.098;11.582;2023-09-07T02:21:04;22.60;53.60
41644;DHT22;44236;48.098;11.582;2023-09-07T02:23:31;22.60;53.60
41644;DHT22;44236;48.098;11.582;2023-09-07T02:25:58;22.50;53.50
41644;DHT22;44236;48.098;11.582;2023-09-07T02:28:24;22.50;53.50
41644;DHT22;44236;48.098;11.582;2023-09-07T02:30:50;22.50;53.50
41644;DHT22;44236;48.098;11.582;2023-09-07T02:33:16;22.50;53.50
41644;DHT22;44236;48.098;11.582;2023-09-07T02:35:41;22.50;53.50
41644;DHT22;44236;48.098;11.582;2023-09-07T02:38:07;22.50;53.50
41644;DHT22;44236;48.098;11.582;2023-09-07T02:40:33;22.50;53.50
41644;DHT22;44236;48.098;11.582;2023-09-07T02:43:04;22.50;53.50
41644;DHT22;44236;48.098;11.582;2023-09-07T02:45:30;22.50;53.50
41644;DHT22;44236;48.098;11.582;2023-09-07T02:47:56;22.50;53.40
41644;DHT22;44236;48.098;11.582;2023-09-07T02:50:22;22.50;53.50
41644;DHT22;44236;48.098;11.582;2023-09-07T02:52:48;22.50;53.50
41644;DHT22;44236;48.098;11.582;2023-09-07T02:55:13;22.50;53.50
41644;DHT22;44236;48.098;11.582;2023-09-07T02:57:39;22.50;53.40
41644;DHT22;44236;48.098;11.582;2023-09-07T03:00:05;22.50;53.50
41644;DHT22;44236;48.098;11.582;2023-09-07T03:02:35;22.50;53.50
41644;DHT22;44236;48.098;11.582;2023-09-07T03:05:04;22.50;53.40
41644;DHT22;44236;48.098;11.582;2023-09-07T03:07:32;22.40;53.40
41644;DHT22;44236;48.098;11.582;2023-09-07T03:09:58;22.40;53.30
41644;DHT22;44236;48.098;11.582;2023-09-07T03:12:23;22.40;53.40
41644;DHT22;44236;48.098;11.582;2023-09-07T03:14:49;22.40;53.30
41644;DHT22;44236;48.098;11.582;2023-09-07T03:17:19;22.40;53.40
41644;DHT22;44236;48.098;11.582;2023-09-07T03:19:46;22.40;53.30
41644;DHT22;44236;48.098;11.582;2023-09-07T03:22:12;22.40;53.30
41644;DHT22;44236;48.098;11.582;2023-09-07T03:24:38;22.40;53.30
41644;DHT22;44236;48.098;11.582;2023-09-07T03:27:04;22.40;53.30
41644;DHT22;44236;48.098;11.582;2023-09-07T03:29:31;22.20;53.20
41644;DHT22;44236;48.098;11.582;2023-09-07T03:31:59;22.40;53.20
41644;DHT22;44236;48.098;11.582;2023-09-07T03:34:25;22.40;53.30
41644;DHT22;44236;48.098;11.582;2023-09-07T03:36:51;22.40;53.30
41644;DHT22;44236;48.098;11.582;2023-09-07T03:39:17;22.30;53.20
41644;DHT22;44236;48.098;11.582;2023-09-07T03:41:44;22.30;53.20
41644;DHT22;44236;48.098;11.582;2023-09-07T03:44:10;22.30;53.20
41644;DHT22;44236;48.098;11.582;2023-09-07T03:46:36;22.30;53.20
41644;DHT22;44236;48.098;11.582;2023-09-07T03:49:02;22.30;53.10
41644;DHT22;44236;48.098;11.582;2023-09-07T03:51:27;22.30;53.10
41644;DHT22;44236;48.098;11.582;2023-09-07T03:53:53;22.30;53.10
41644;DHT22;44236;48.098;11.582;2023-09-07T03:56:18;22.30;53.10
41644;DHT22;44236;48.098;11.582;2023-09-07T03:58:44;22.30;53.10
41644;DHT22;44236;48.098;11.582;2023-09-07T04:01:09;22.30;53.10
41644;DHT22;44236;48.098;11.582;2023-09-07T04:03:35;22.30;53.00
41644;DHT22;44236;48.098;11.582;2023-09-07T04:06:01;22.30;53.00
41644;DHT22;44236;48.098;11.582;2023-09-07T04:08:26;22.30;53.00
41644;DHT22;44236;48.098;11.582;2023-09-07T04:10:52;22.20;53.00
41644;DHT22;44236;48.098;11.582;2023-09-07T04:13:17;22.20;52.90
41644;DHT22;44236;48.098;11.582;2023-09-07T04:15:46;22.30;53.00
41644;DHT22;44236;48.098;11.582;2023-09-07T04:18:12;22.20;53.00
41644;DHT22;44236;48.098;11.582;2023-09-07T04:20:40;22.20;53.30
41644;DHT22;44236;48.098;11.582;2023-09-07T04:23:06;22.20;53.00
41644;DHT22;44236;48.098;11.582;2023-09-07T04:25:32;22.20;53.00
41644;DHT22;44236;48.098;11.582;2023-09-07T04:28:00;22.20;52.90
41644;DHT22;44236;48.098;11.582;2023-09-07T04:30:26;22.20;52.90
41644;DHT22;44236;48.098;11.582;2023-09-07T04:32:52;22.20;52.90
41644;DHT22;44236;48.098;11.582;2023-09-07T04:35:18;22.20;52.80
41644;DHT22;44236;48.098;11.582;2023-09-07T04:37:44;22.20;52.80
41644;DHT22;44236;48.098;11.582;2023-09-07T04:40:10;22.20;52.80
41644;DHT22;44236;48.098;11.582;2023-09-07T04:42:36;22.20;52.80
41644;DHT22;44236;48.098;11.582;2023-09-07T04:45:04;22.20;52.80
41644;DHT22;44236;48.098;11.582;2023-09-07T04:47:30;22.20;52.80
41644;DHT22;44236;48.098;11.582;2023-09-07T04:49:56;22.20;52.80
41644;DHT22;44236;48.098;11.582;2023-09-07T04:52:21;22.20;52.80
41644;DHT22;44236;48.098;11.582;2023-09-07T04:54:47;22.10;52.70
41644;DHT22;44236;48.098;11.582;2023-09-07T04:57:15;22.10;52.80
41644;DHT22;44236;48.098;11.582;2023-09-07T04:59:41;22.10;52.80
41644;DHT22;44236;48.098;11.582;2023-09-07T05:02:07;22.10;53.20
41644;DHT22;44236;48.098;11.582;2023-09-07T05:04:32;22.10;52.80
41644;DHT22;44236;48.098;11.582;2023-09-07T05:06:58;22.10;52.70
41644;DHT22;44236;48.098;11.582;2023-09-07T05:09:23;22.10;52.70
41644;DHT22;44236;48.098;11.582;2023-09-07T05:11:50;22.10;52.70
41644;DHT22;44236;48.098;11.582;2023-09-07T05:14:16;22.10;52.80
41644;DHT22;44236;48.098;11.582;2023-09-07T05:16:44;22.20;52.80
41644;DHT22;44236;48.098;11.582;2023-09-07T05:19:10;22.10;52.70
41644;DHT22;44236;48.098;11.582;2023-09-07T05:21:36;22.10;52.70
41644;DHT22;44236;48.098;11.582;2023-09-07T05:24:01;22.10;52.80
41644;DHT22;44236;48.098;11.582;2023-09-07T05:26:27;22.20;53.00
41644;DHT22;44236;48.098;11.582;2023-09-07T05:28:53;22.20;53.10
41644;DHT22;44236;48.098;11.582;2023-09-07T05:31:19;22.20;53.20
41644;DHT22;44236;48.098;11.582;2023-09-07T05:33:44;22.20;53.40
41644;DHT22;44236;48.098;11.582;2023-09-07T05:36:10;22.30;53.50
41644;DHT22;44236;48.098;11.582;2023-09-07T05:38:36;22.30;53.60
41644;DHT22;44236;48.098;11.582;2023-09-07T05:41:02;22.30;54.00
41644;DHT22;44236;48.098;11.582;2023-09-07T05:43:27;22.20;53.80
41644;DHT22;44236;48.098;11.582;2023-09-07T05:45:53;21.80;52.30
41644;DHT22;44236;48.098;11.582;2023-09-07T05:48:18;21.70;54.10
41644;DHT22;44236;48.098;11.582;2023-09-07T05:50:46;21.60;54.40
41644;DHT22;44236;48.098;11.582;2023-09-07T05:53:11;21.70;53.70
41644;DHT22;44236;48.098;11.582;2023-09-07T05:55:37;21.80;54.30
41644;DHT22;44236;48.098;11.582;2023-09-07T05:58:05;21.90;54.70
41644;DHT22;44236;48.098;11.582;2023-09-07T06:00:31;22.00;54.50
41644;DHT22;44236;48.098;11.582;2023-09-07T06:02:57;22.10;54.30
41644;DHT22;44236;48.098;11.582;2023-09-07T06:05:22;22.10;54.30
41644;DHT22;44236;48.098;11.582;2023-09-07T06:07:48;22.20;54.00
41644;DHT22;44236;48.098;11.582;2023-09-07T06:10:14;22.20;53.90
41644;DHT22;44236;48.098;11.582;2023-09-07T06:12:40;22.20;53.80
41644;DHT22;44236;48.098;11.582;2023-09-07T06:15:07;22.30;53.90
41644;DHT22;44236;48.098;11.582;2023-09-07T06:17:32;22.30;53.80
41644;DHT22;44236;48.098;11.582;2023-09-07T06:19:58;22.30;53.80
41644;DHT22;44236;48.098;11.582;2023-09-07T06:22:24;22.30;53.80
41644;DHT22;44236;48.098;11.582;2023-09-07T06:24:50;22.30;53.80
41644;DHT22;44236;48.098;11.582;2023-09-07T06:27:15;22.30;53.70
41644;DHT22;44236;48.098;11.582;2023-09-07T06:29:41;22.30;53.70
41644;DHT22;44236;48.098;11.582;2023-09-07T06:32:06;22.30;53.70
41644;DHT22;44236;48.098;11.582;2023-09-07T06:34:32;22.30;53.80
41644;DHT22;44236;48.098;11.582;2023-09-07T06:36:58;22.40;53.80
41644;DHT22;44236;48.098;11.582;2023-09-07T06:39:23;22.30;53.80
41644;DHT22;44236;48.098;11.582;2023-09-07T06:41:49;22.40;53.80
41644;DHT22;44236;48.098;11.582;2023-09-07T06:44:15;22.40;53.90
41644;DHT22;44236;48.098;11.582;2023-09-07T06:46:42;22.40;54.00
41644;DHT22;44236;48.098;11.582;2023-09-07T06:49:08;22.40;54.00
41644;DHT22;44236;48.098;11.582;2023-09-07T06:51:33;22.40;54.00
41644;DHT22;44236;48.098;11.582;2023-09-07T06:53:59;22.40;54.10
41644;DHT22;44236;48.098;11.582;2023-09-07T06:56:25;22.40;54.10
41644;DHT22;44236;48.098;11.582;2023-09-07T06:58:52;22.40;54.10
41644;DHT22;44236;48.098;11.582;2023-09-07T07:01:18;22.50;54.30
41644;DHT22;44236;48.098;11.582;2023-09-07T07:03:44;22.50;54.20
41644;DHT22;44236;48.098;11.582;2023-09-07T07:06:09;22.50;54.30
41644;DHT22;44236;48.098;11.582;2023-09-07T07:08:35;22.50;54.50
41644;DHT22;44236;48.098;11.582;2023-09-07T07:11:01;22.50;54.50
41644;DHT22;44236;48.098;11.582;2023-09-07T07:13:27;22.50;54.50
41644;DHT22;44236;48.098;11.582;2023-09-07T07:15:54;22.30;54.50
41644;DHT22;44236;48.098;11.582;2023-09-07T07:18:19;22.50;54.50
41644;DHT22;44236;48.098;11.582;2023-09-07T07:20:45;22.50;54.40
41644;DHT22;44236;48.098;11.582;2023-09-07T07:23:11;22.50;54.60
41644;DHT22;44236;48.098;11.582;2023-09-07T07:25:38;22.50;54.60
41644;DHT22;44236;48.098;11.582;2023-09-07T07:28:04;22.60;54.70
41644;DHT22;44236;48.098;11.582;2023-09-07T07:30:39;22.70;55.80
41644;DHT22;44236;48.098;11.582;2023-09-07T07:33:08;22.60;56.30
41644;DHT22;44236;48.098;11.582;2023-09-07T07:35:34;22.70;56.90
41644;DHT22;44236;48.098;11.582;2023-09-07T07:38:01;22.50;57.00
41644;DHT22;44236;48.098;11.582;2023-09-07T07:40:27;22.50;57.40
41644;DHT22;44236;48.098;11.582;2023-09-07T07:42:53;22.50;57.60
41644;DHT22;44236;48.098;11.582;2023-09-07T07:45:19;22.50;57.60
41644;DHT22;44236;48.098;11.582;2023-09-07T07:47:51;22.50;57.90
41644;DHT22;44236;48.098;11.582;2023-09-07T07:50:17;22.40;58.30
41644;DHT22;44236;48.098;11.582;2023-09-07T07:52:43;22.40;58.40
41644;DHT22;44236;48.098;11.582;2023-09-07T07:55:10;22.40;58.40
41644;DHT22;44236;48.098;11.582;2023-09-07T07:57:36;22.40;58.80
41644;DHT22;44236;48.098;11.582;2023-09-07T08:00:03;22.40;58.90
41644;DHT22;44236;48.098;11.582;2023-09-07T08:02:29;22.40;59.00
41644;DHT22;44236;48.098;11.582;2023-09-07T08:04:55;22.40;59.10
41644;DHT22;44236;48.098;11.582;2023-09-07T08:07:21;22.40;59.20
41644;DHT22;44236;48.098;11.582;2023-09-07T08:09:47;22.40;59.30
41644;DHT22;44236;48.098;11.582;2023-09-07T08:12:12;22.40;59.50
41644;DHT22;44236;48.098;11.582;2023-09-07T08:14:38;22.50;59.80
41644;DHT22;44236;48.098;11.582;2023-09-07T08:17:04;22.50;59.30
41644;DHT22;44236;48.098;11.582;2023-09-07T08:19:29;22.60;60.20
41644;DHT22;44236;48.098;11.582;2023-09-07T08:21:55;22.60;59.70
41644;DHT22;44236;48.098;11.582;2023-09-07T08:24:21;22.60;59.90
41644;DHT22;44236;48.098;11.582;2023-09-07T08:26:46;22.60;59.50
41644;DHT22;44236;48.098;11.582;2023-09-07T08:29:17;22.60;60.20
41644;DHT22;44236;48.098;11.582;2023-09-07T08:31:42;22.70;59.90
41644;DHT22;44236;48.098;11.582;2023-09-07T08:34:10;22.70;59.70
41644;DHT22;44236;48.098;11.582;2023-09-07T08:36:37;22.70;58.90
41644;DHT22;44236;48.098;11.582;2023-09-07T08:39:04;22.70;59.40
41644;DHT22;44236;48.098;11.582;2023-09-07T08:41:43;22.70;59.90
41644;DHT22;44236;48.098;11.582;2023-09-07T08:44:18;22.70;60.00
41644;DHT22;44236;48.098;11.582;2023-09-07T08:46:49;22.70;58.70
41644;DHT22;44236;48.098;11.582;2023-09-07T08:49:16;22.70;57.90
41644;DHT22;44236;48.098;11.582;2023-09-07T08:51:45;22.80;59.10
41644;DHT22;44236;48.098;11.582;2023-09-07T08:54:12;22.80;59.10
41644;DHT22;44236;48.098;11.582;2023-09-07T08:56:37;22.80;59.50
41644;DHT22;44236;48.098;11.582;2023-09-07T08:59:03;22.80;58.90
41644;DHT22;44236;48.098;11.582;2023-09-07T09:01:30;22.80;59.70
41644;DHT22;44236;48.098;11.582;2023-09-07T09:03:59;22.80;59.60
41644;DHT22;44236;48.098;11.582;2023-09-07T09:06:25;22.90;59.50
41644;DHT22;44236;48.098;11.582;2023-09-07T09:08:55;22.90;59.30
41644;DHT22;44236;48.098;11.582;2023-09-07T09:11:22;22.90;59.10
41644;DHT22;44236;48.098;11.582;2023-09-07T09:13:49;22.90;58.90
41644;DHT22;44236;48.098;11.582;2023-09-07T09:16:15;22.90;58.70
41644;DHT22;44236;48.098;11.582;2023-09-07T09:18:56;22.90;58.70
41644;DHT22;44236;48.098;11.582;2023-09-07T09:21:24;22.90;59.40
41644;DHT22;44236;48.098;11.582;2023-09-07T09:23:52;22.90;58.40
41644;DHT22;44236;48.098;11.582;2023-09-07T09:26:18;23.00;58.70
41644;DHT22;44236;48.098;11.582;2023-09-07T09:28:44;23.00;58.60
41644;DHT22;44236;48.098;11.582;2023-09-07T09:31:14;23.00;57.90
41644;DHT22;44236;48.098;11.582;2023-09-07T09:33:40;23.00;59.40
41644;DHT22;44236;48.098;11.582;2023-09-07T09:36:07;23.00;58.80
41644;DHT22;44236;48.098;11.582;2023-09-07T09:38:34;23.00;58.70
41644;DHT22;44236;48.098;11.582;2023-09-07T09:41:00;23.00;59.30
41644;DHT22;44236;48.098;11.582;2023-09-07T09:43:26;23.00;57.70
41644;DHT22;44236;48.098;11.582;2023-09-07T09:45:52;23.00;59.50
41644;DHT22;44236;48.098;11.582;2023-09-07T09:48:21;23.10;60.00
41644;DHT22;44236;48.098;11.582;2023-09-07T09:50:48;23.10;59.50
41644;DHT22;44236;48.098;11.582;2023-09-07T09:53:15;23.10;59.00
41644;DHT22;44236;48.098;11.582;2023-09-07T09:55:44;23.10;59.30
41644;DHT22;44236;48.098;11.582;2023-09-07T09:58:13;23.10;59.00
41644;DHT22;44236;48.098;11.582;2023-09-07T10:00:40;23.10;58.20
41644;DHT22;44236;48.098;11.582;2023-09-07T10:03:24;23.10;59.50
41644;DHT22;44236;48.098;11.582;2023-09-07T10:05:52;23.10;59.20
41644;DHT22;44236;48.098;11.582;2023-09-07T10:08:22;23.10;59.20
41644;DHT22;44236;48.098;11.582;2023-09-07T10:10:52;23.00;59.30
41644;DHT22;44236;48.098;11.582;2023-09-07T10:13:31;23.20;59.20
41644;DHT22;44236;48.098;11.582;2023-09-07T10:16:07;23.20;58.80
41644;DHT22;44236;48.098;11.582;2023-09-07T10:18:35;23.20;58.50
41644;DHT22;44236;48.098;11.582;2023-09-07T10:21:01;23.20;58.90
41644;DHT22;44236;48.098;11.582;2023-09-07T10:23:40;23.20;59.60
41644;DHT22;44236;48.098;11.582;2023-09-07T10:26:14;23.30;58.80
41644;DHT22;44236;48.098;11.582;2023-09-07T10:28:40;23.30;59.50
41644;DHT22;44236;48.098;11.582;2023-09-07T10:31:12;23.30;59.50
41644;DHT22;44236;48.098;11.582;2023-09-07T10:33:39;23.30;58.90
41644;DHT22;44236;48.098;11.582;2023-09-07T10:36:05;23.30;58.80
41644;DHT22;44236;48.098;11.582;2023-09-07T10:38:35;23.30;58.60
41644;DHT22;44236;48.098;11.582;2023-09-07T10:41:03;23.30;59.20
41644;DHT22;44236;48.098;11.582;2023-09-07T10:43:30;23.40;59.40
41644;DHT22;44236;48.098;11.582;2023-09-07T10:45:58;23.30;59.30
41644;DHT22;44236;48.098;11.582;2023-09-07T10:48:25;23.30;59.10
41644;DHT22;44236;48.098;11.582;2023-09-07T10:50:51;23.30;59.20
41644;DHT22;44236;48.098;11.582;2023-09-07T10:53:25;23.30;59.00
41644;DHT22;44236;48.098;11.582;2023-09-07T10:55:53;23.40;59.40
41644;DHT22;44236;48.098;11.582;2023-09-07T10:58:35;23.40;58.40
41644;DHT22;44236;48.098;11.582;2023-09-07T11:01:05;23.40;59.40
41644;DHT22;44236;48.098;11.582;2023-09-07T11:03:31;23.40;59.40
41644;DHT22;44236;48.098;11.582;2023-09-07T11:06:03;23.40;59.20
41644;DHT22;44236;48.098;11.582;2023-09-07T11:08:30;23.50;59.70
41644;DHT22;44236;48.098;11.582;2023-09-07T11:10:56;23.50;59.50
41644;DHT22;44236;48.098;11.582;2023-09-07T11:13:25;23.50;59.00
41644;DHT22;44236;48.098;11.582;2023-09-07T11:15:54;23.50;58.50
41644;DHT22;44236;48.098;11.582;2023-09-07T11:18:21;23.50;58.80
41644;DHT22;44236;48.098;11.582;2023-09-07T11:20:48;23.40;58.60
41644;DHT22;44236;48.098;11.582;2023-09-07T11:23:14;23.40;58.40
41644;DHT22;44236;48.098;11.582;2023-09-07T11:25:39;23.40;58.80
41644;DHT22;44236;48.098;11.582;2023-09-07T11:28:06;23.40;58.60
41644;DHT22;44236;48.098;11.582;2023-09-07T11:30:35;23.40;58.30
41644;DHT22;44236;48.098;11.582;2023-09-07T11:33:09;23.40;58.30
41644;DHT22;44236;48.098;11.582;2023-09-07T11:35:35;23.40;58.30
41644;DHT22;44236;48.098;11.582;2023-09-07T11:38:02;23.40;58.30
41644;DHT22;44236;48.098;11.582;2023-09-07T11:40:29;23.40;58.20
41644;DHT22;44236;48.098;11.582;2023-09-07T11:42:55;23.40;58.20
41644;DHT22;44236;48.098;11.582;2023-09-07T11:45:21;23.40;58.20
41644;DHT22;44236;48.098;11.582;2023-09-07T11:47:46;23.40;58.10
41644;DHT22;44236;48.098;11.582;2023-09-07T11:50:12;23.40;58.20
41644;DHT22;44236;48.098;11.582;2023-09-07T11:52:38;23.40;58.10
41644;DHT22;44236;48.098;11.582;2023-09-07T11:55:04;23.50;58.20
41644;DHT22;44236;48.098;11.582;2023-09-07T11:57:30;23.50;58.30
41644;DHT22;44236;48.098;11.582;2023-09-07T11:59:56;23.40;58.10
41644;DHT22;44236;48.098;11.582;2023-09-07T12:02:22;23.50;58.10
41644;DHT22;44236;48.098;11.582;2023-09-07T12:04:48;23.50;58.20
41644;DHT22;44236;48.098;11.582;2023-09-07T12:07:14;23.50;58.20
41644;DHT22;44236;48.098;11.582;2023-09-07T12:09:40;23.50;58.20
41644;DHT22;44236;48.098;11.582;2023-09-07T12:12:06;23.50;58.10
41644;DHT22;44236;48.098;11.582;2023-09-07T12:14:31;23.50;58.10
41644;DHT22;44236;48.098;11.582;2023-09-07T12:16:57;23.50;58.20
41644;DHT22;44236;48.098;11.582;2023-09-07T12:19:23;23.50;58.10
41644;DHT22;44236;48.098;11.582;2023-09-07T12:21:50;23.50;58.10
41644;DHT22;44236;48.098;11.582;2023-09-07T12:24:16;23.50;58.20
41644;DHT22;44236;48.098;11.582;2023-09-07T12:26:41;23.40;58.50
41644;DHT22;44236;48.098;11.582;2023-09-07T12:29:07;23.50;58.20
41644;DHT22;44236;48.098;11.582;2023-09-07T12:31:33;23.50;58.30
41644;DHT22;44236;48.098;11.582;2023-09-07T12:33:58;23.60;58.30
41644;DHT22;44236;48.098;11.582;2023-09-07T12:36:24;23.60;58.40
41644;DHT22;44236;48.098;11.582;2023-09-07T12:38:52;23.60;58.90
41644;DHT22;44236;48.098;11.582;2023-09-07T12:41:19;23.50;58.40
41644;DHT22;44236;48.098;11.582;2023-09-07T12:43:46;23.60;58.50
41644;DHT22;44236;48.098;11.582;2023-09-07T12:46:12;23.50;58.40
41644;DHT22;44236;48.098;11.582;2023-09-07T12:48:37;23.60;58.40
41644;DHT22;44236;48.098;11.582;2023-09-07T12:51:03;23.60;58.40
41644;DHT22;44236;48.098;11.582;2023-09-07T12:53:29;23.60;58.50
41644;DHT22;44236;48.098;11.582;2023-09-07T12:55:54;23.60;58.40
41644;DHT22;44236;48.098;11.582;2023-09-07T12:58:20;23.60;58.30
41644;DHT22;44236;48.098;11.582;2023-09-07T13:00:46;23.60;58.40
41644;DHT22;44236;48.098;11.582;2023-09-07T13:03:14;23.60;58.30
41644;DHT22;44236;48.098;11.582;2023-09-07T13:05:40;23.60;58.30
41644;DHT22;44236;48.098;11.582;2023-09-07T13:08:05;23.60;58.40
41644;DHT22;44236;48.098;11.582;2023-09-07T13:10:32;23.60;58.40
41644;DHT22;44236;48.098;11.582;2023-09-07T13:12:58;23.60;58.30
41644;DHT22;44236;48.098;11.582;2023-09-07T13:15:23;23.60;58.30
41644;DHT22;44236;48.098;11.582;2023-09-07T13:17:49;23.60;58.40
41644;DHT22;44236;48.098;11.582;2023-09-07T13:20:14;23.60;58.40
41644;DHT22;44236;48.098;11.582;2023-09-07T13:22:41;23.60;58.40
41644;DHT22;44236;48.098;11.582;2023-09-07T13:25:07;23.60;58.30
41644;DHT22;44236;48.098;11.582;2023-09-07T13:27:33;23.60;58.20
41644;DHT22;44236;48.098;11.582;2023-09-07T13:29:59;23.60;58.30
41644;DHT22;44236;48.098;11.582;2023-09-07T13:32:26;23.60;58.30
41644;DHT22;44236;48.098;11.582;2023-09-07T13:34:52;23.60;58.30
41644;DHT22;44236;48.098;11.582;2023-09-07T13:37:17;23.60;58.30
41644;DHT22;44236;48.098;11.582;2023-09-07T13:39:43;23.70;58.40
41644;DHT22;44236;48.098;11.582;2023-09-07T13:42:08;23.70;58.40
41644;DHT22;44236;48.098;11.582;2023-09-07T13:44:34;23.60;58.40
41644;DHT22;44236;48.098;11.582;2023-09-07T13:47:00;23.60;58.30
41644;DHT22;44236;48.098;11.582;2023-09-07T13:49:25;23.70;58.40
41644;DHT22;44236;48.098;11.582;2023-09-07T13:51:51;23.70;58.50
41644;DHT22;44236;48.098;11.582;2023-09-07T13:54:16;23.70;58.40
41644;DHT22;44236;48.098;11.582;2023-09-07T13:56:42;23.70;58.30
41644;DHT22;44236;48.098;11.582;2023-09-07T13:59:10;23.70;58.50
41644;DHT22;44236;48.098;11.582;2023-09-07T14:01:36;23.70;58.50
41644;DHT22;44236;48.098;11.582;2023-09-07T14:04:03;23.70;58.50
41644;DHT22;44236;48.098;11.582;2023-09-07T14:06:29;23.70;58.50
41644;DHT22;44236;48.098;11.582;2023-09-07T14:08:54;23.70;58.30
41644;DHT22;44236;48.098;11.582;2023-09-07T14:11:20;23.70;58.50
41644;DHT22;44236;48.098;11.582;2023-09-07T14:13:47;23.70;58.40
41644;DHT22;44236;48.098;11.582;2023-09-07T14:16:13;23.70;58.60
41644;DHT22;44236;48.098;11.582;2023-09-07T14:18:39;23.70;58.30
41644;DHT22;44236;48.098;11.582;2023-09-07T14:21:04;23.70;58.30
41644;DHT22;44236;48.098;11.582;2023-09-07T14:23:30;23.70;58.40
41644;DHT22;44236;48.098;11.582;2023-09-07T14:25:55;23.70;58.40
41644;DHT22;44236;48.098;11.582;2023-09-07T14:28:21;23.70;58.40
41644;DHT22;44236;48.098;11.582;2023-09-07T14:30:47;23.70;58.40
41644;DHT22;44236;48.098;11.582;2023-09-07T14:33:13;23.70;58.40
41644;DHT22;44236;48.098;11.582;2023-09-07T14:35:39;23.70;58.50
41644;DHT22;44236;48.098;11.582;2023-09-07T14:38:05;23.70;58.40
41644;DHT22;44236;48.098;11.582;2023-09-07T14:40:31;23.70;58.30
41644;DHT22;44236;48.098;11.582;2023-09-07T14:42:57;23.70;58.30
41644;DHT22;44236;48.098;11.582;2023-09-07T14:45:24;23.70;58.30
41644;DHT22;44236;48.098;11.582;2023-09-07T14:47:51;23.70;58.40
41644;DHT22;44236;48.098;11.582;2023-09-07T14:50:17;23.70;58.40
41644;DHT22;44236;48.098;11.582;2023-09-07T14:52:42;23.70;58.40
41644;DHT22;44236;48.098;11.582;2023-09-07T14:55:15;23.70;58.40
41644;DHT22;44236;48.098;11.582;2023-09-07T14:57:40;23.70;58.20
41644;DHT22;44236;48.098;11.582;2023-09-07T15:00:09;23.70;58.20
41644;DHT22;44236;48.098;11.582;2023-09-07T15:02:35;23.70;58.30
41644;DHT22;44236;48.098;11.582;2023-09-07T15:05:00;23.70;58.30
41644;DHT22;44236;48.098;11.582;2023-09-07T15:07:26;23.70;58.30
41644;DHT22;44236;48.098;11.582;2023-09-07T15:09:52;23.70;58.30
41644;DHT22;44236;48.098;11.582;2023-09-07T15:12:17;23.70;58.20